Terminal Aerodrome Forecast
Issued by NWS Twin Cities, MN

Home | Current Version | Previous Version | Text Only | Print | Product List | Glossary Off
Versions: 1 2 3 4 5 6 7 8 9 10 11 12 13 14 15 16 17

000
FTUS43 KMPX 271100
TAFSTC
TAF
KSTC 271132Z 2712/2812 14008KT P6SM SCT060
     FM271600 18012G20KT P6SM SCT060
     FM280000 17006KT P6SM FEW060=

USA.gov is the U.S. government's official web portal to all federal, state and local government web resources and services.